Time,TemperatureF,DewpointF,PressureIn,WindDirection,WindDirectionDegrees,WindSpeedMPH,WindSpeedGustMPH,Humidity,HourlyPrecipIn,Conditions,Clouds,dailyrainin,SoftwareType,DateUTC
2013-09-10 00:10:00,63.9,63.3,29.98,ESE,112,0.0,-999.0,98,-99.99,,,0.00,Acu-Link.com,2013-09-10 04:10:00,
2013-09-10 00:26:00,63.5,62.9,29.98,East,90,0.0,-999.0,98,-99.99,,,0.00,Acu-Link.com,2013-09-10 04:26:00,
2013-09-10 00:41:00,63.1,62.5,29.98,West,270,0.0,-999.0,98,-99.99,,,0.00,Acu-Link.com,2013-09-10 04:41:00,
2013-09-10 00:56:00,62.6,62.0,29.98,WSW,247,0.0,-999.0,98,-99.99,,,0.00,Acu-Link.com,2013-09-10 04:56:00,
2013-09-10 01:11:00,62.8,62.2,29.99,NE,45,0.0,-999.0,98,-99.99,,,0.00,Acu-Link.com,2013-09-10 05:11:00,
2013-09-10 01:26:00,62.4,61.8,29.99,WNW,292,0.0,-999.0,98,-99.99,,,0.00,Acu-Link.com,2013-09-10 05:26:00,
2013-09-10 01:42:00,62.1,61.5,29.99,North,0,0.0,-999.0,98,-99.99,,,0.00,Acu-Link.com,2013-09-10 05:42:00,
2013-09-10 01:57:00,61.7,61.1,30.00,SW,225,0.0,-999.0,98,-99.99,,,0.00,Acu-Link.com,2013-09-10 05:57:00,
2013-09-10 02:12:00,61.7,61.1,30.00,NE,45,0.0,-999.0,98,-99.99,,,0.00,Acu-Link.com,2013-09-10 06:12:00,
2013-09-10 02:27:00,61.2,60.6,30.00,SW,225,0.0,-999.0,98,-99.99,,,0.00,Acu-Link.com,2013-09-10 06:27:00,
2013-09-10 02:42:00,61.0,60.4,30.01,SSE,157,0.0,-999.0,98,-99.99,,,0.00,Acu-Link.com,2013-09-10 06:42:00,
2013-09-10 02:57:00,61.0,60.4,30.01,South,180,0.0,-999.0,98,-99.99,,,0.00,Acu-Link.com,2013-09-10 06:57:00,
2013-09-10 03:13:00,60.8,60.2,30.01,South,180,0.0,-999.0,98,-99.99,,,0.00,Acu-Link.com,2013-09-10 07:13:00,
2013-09-10 03:28:00,60.4,59.8,30.01,East,90,0.0,-999.0,98,-99.99,,,0.00,Acu-Link.com,2013-09-10 07:28:00,
2013-09-10 03:43:00,60.4,59.8,30.01,East,90,0.0,-999.0,98,-99.99,,,0.00,Acu-Link.com,2013-09-10 07:43:00,
2013-09-10 03:58:00,60.1,59.5,30.01,East,90,0.0,-999.0,98,-99.99,,,0.00,Acu-Link.com,2013-09-10 07:58:00,
2013-09-10 04:14:00,60.1,59.5,30.01,East,90,0.0,-999.0,98,-99.99,,,0.00,Acu-Link.com,2013-09-10 08:14:00,
2013-09-10 04:29:00,59.9,59.3,30.01,East,90,0.0,-999.0,98,-99.99,,,0.00,Acu-Link.com,2013-09-10 08:29:00,
2013-09-10 04:44:00,59.9,59.3,30.01,East,90,0.0,-999.0,98,-99.99,,,0.00,Acu-Link.com,2013-09-10 08:44:00,
2013-09-10 04:59:00,60.3,59.7,30.01,East,90,0.0,-999.0,98,-99.99,,,0.00,Acu-Link.com,2013-09-10 08:59:00,
2013-09-10 05:14:00,60.3,59.7,30.02,East,90,0.0,-999.0,98,-99.99,,,0.00,Acu-Link.com,2013-09-10 09:14:00,
2013-09-10 05:30:00,59.9,59.3,30.02,East,90,0.0,-999.0,98,-99.99,,,0.00,Acu-Link.com,2013-09-10 09:30:00,
2013-09-10 05:45:00,59.9,59.3,30.02,ENE,67,0.0,-999.0,98,-99.99,,,0.00,Acu-Link.com,2013-09-10 09:45:00,
2013-09-10 06:00:00,59.9,59.3,30.02,NE,45,0.0,-999.0,98,-99.99,,,0.00,Acu-Link.com,2013-09-10 10:00:00,
2013-09-10 06:15:00,59.9,59.3,30.02,NE,45,0.0,-999.0,98,-99.99,,,0.00,Acu-Link.com,2013-09-10 10:15:00,
2013-09-10 06:30:00,59.5,58.9,30.03,South,180,0.0,-999.0,98,-99.99,,,0.00,Acu-Link.com,2013-09-10 10:30:00,
2013-09-10 06:45:00,59.4,58.8,30.03,East,90,0.0,-999.0,98,-99.99,,,0.00,Acu-Link.com,2013-09-10 10:45:00,
2013-09-10 07:01:00,59.2,58.6,30.04,ESE,112,0.0,-999.0,98,-99.99,,,0.00,Acu-Link.com,2013-09-10 11:01:00,
2013-09-10 07:16:00,59.2,58.6,30.04,ENE,67,0.0,-999.0,98,-99.99,,,0.00,Acu-Link.com,2013-09-10 11:16:00,
2013-09-10 07:31:00,59.2,58.6,30.05,ESE,112,0.0,-999.0,98,-99.99,,,0.00,Acu-Link.com,2013-09-10 11:31:00,
2013-09-10 07:46:00,59.5,58.9,30.05,East,90,0.0,-999.0,98,-99.99,,,0.00,Acu-Link.com,2013-09-10 11:46:00,
2013-09-10 08:01:00,60.3,59.7,30.06,ESE,112,0.0,-999.0,98,-99.99,,,0.00,Acu-Link.com,2013-09-10 12:01:00,
2013-09-10 08:16:00,61.3,60.7,30.06,NE,45,0.0,-999.0,98,-99.99,,,0.00,Acu-Link.com,2013-09-10 12:16:00,
2013-09-10 08:32:00,62.6,62.0,30.06,ENE,67,0.0,-999.0,98,-99.99,,,0.00,Acu-Link.com,2013-09-10 12:32:00,
2013-09-10 08:47:00,63.9,63.3,30.06,ESE,112,0.0,-999.0,98,-99.99,,,0.00,Acu-Link.com,2013-09-10 12:47:00,
2013-09-10 09:02:00,66.4,65.8,30.07,ESE,112,0.0,-999.0,98,-99.99,,,0.00,Acu-Link.com,2013-09-10 13:02:00,
2013-09-10 09:17:00,68.5,67.9,30.07,SE,135,0.0,-999.0,98,-99.99,,,0.00,Acu-Link.com,2013-09-10 13:17:00,
2013-09-10 09:32:00,68.7,68.1,30.08,SW,225,0.0,-999.0,98,-99.99,,,0.00,Acu-Link.com,2013-09-10 13:32:00,
2013-09-10 09:48:00,69.1,68.5,30.08,SE,135,1.7,-999.0,98,-99.99,,,0.00,Acu-Link.com,2013-09-10 13:48:00,
2013-09-10 10:03:00,72.7,72.1,30.09,NE,45,0.0,-999.0,98,-99.99,,,0.00,Acu-Link.com,2013-09-10 14:03:00,
2013-09-10 10:18:00,75.0,74.4,30.08,SSE,157,1.1,-999.0,98,-99.99,,,0.00,Acu-Link.com,2013-09-10 14:18:00,
2013-09-10 10:34:00,75.0,74.4,30.08,North,0,1.1,-999.0,98,-99.99,,,0.00,Acu-Link.com,2013-09-10 14:34:00,
2013-09-10 10:49:00,78.8,78.2,30.08,ENE,67,0.0,-999.0,98,-99.99,,,0.00,Acu-Link.com,2013-09-10 14:49:00,
2013-09-10 11:05:00,80.2,79.6,30.08,SE,135,2.2,-999.0,98,-99.99,,,0.00,Acu-Link.com,2013-09-10 15:05:00,
2013-09-10 11:20:00,82.9,82.3,30.08,SE,135,1.1,-999.0,98,-99.99,,,0.00,Acu-Link.com,2013-09-10 15:20:00,
2013-09-10 11:35:00,82.8,82.2,30.07,SE,135,2.2,-999.0,98,-99.99,,,0.00,Acu-Link.com,2013-09-10 15:35:00,
2013-09-10 11:50:00,82.6,82.0,30.07,East,90,1.1,-999.0,98,-99.99,,,0.00,Acu-Link.com,2013-09-10 15:50:00,
2013-09-10 12:05:00,84.2,83.6,30.07,ESE,112,2.2,-999.0,98,-99.99,,,0.00,Acu-Link.com,2013-09-10 16:05:00,
2013-09-10 12:20:00,84.7,84.1,30.06,SE,135,2.2,-999.0,98,-99.99,,,0.00,Acu-Link.com,2013-09-10 16:20:00,
2013-09-10 12:36:00,88.0,87.0,30.06,NNW,337,2.2,-999.0,97,-99.99,,,0.00,Acu-Link.com,2013-09-10 16:36:00,
2013-09-10 12:51:00,84.9,83.0,30.06,ENE,67,1.7,-999.0,94,-99.99,,,0.00,Acu-Link.com,2013-09-10 16:51:00,
2013-09-10 13:06:00,86.7,84.8,30.05,ENE,67,1.7,-999.0,94,-99.99,,,0.00,Acu-Link.com,2013-09-10 17:06:00,
2013-09-10 13:21:00,86.5,81.8,30.05,WNW,292,3.2,-999.0,86,-99.99,,,0.00,Acu-Link.com,2013-09-10 17:21:00,
2013-09-10 13:36:00,85.1,82.2,30.05,ESE,112,1.7,-999.0,91,-99.99,,,0.00,Acu-Link.com,2013-09-10 17:36:00,
2013-09-10 13:52:00,87.1,83.1,30.05,SSW,202,1.1,-999.0,88,-99.99,,,0.00,Acu-Link.com,2013-09-10 17:52:00,
2013-09-10 14:07:00,86.9,82.5,30.04,East,90,1.1,-999.0,87,-99.99,,,0.00,Acu-Link.com,2013-09-10 18:07:00,
2013-09-10 14:22:00,87.4,82.0,30.04,NNW,337,2.2,-999.0,84,-99.99,,,0.00,Acu-Link.com,2013-09-10 18:22:00,
2013-09-10 14:37:00,85.5,82.2,30.04,SW,225,2.2,-999.0,90,-99.99,,,0.00,Acu-Link.com,2013-09-10 18:37:00,
2013-09-10 14:52:00,85.3,83.7,30.03,WNW,292,3.7,-999.0,95,-99.99,,,0.00,Acu-Link.com,2013-09-10 18:52:00,
2013-09-10 15:08:00,86.0,83.4,30.03,NNW,337,2.2,-999.0,92,-99.99,,,0.00,Acu-Link.com,2013-09-10 19:08:00,
2013-09-10 15:23:00,86.7,85.1,30.02,ESE,112,3.7,-999.0,95,-99.99,,,0.00,Acu-Link.com,2013-09-10 19:23:00,
2013-09-10 15:38:00,85.5,83.6,30.01,North,0,3.2,-999.0,94,-99.99,,,0.00,Acu-Link.com,2013-09-10 19:38:00,
2013-09-10 15:54:00,84.9,82.6,30.01,South,180,1.1,-999.0,93,-99.99,,,0.00,Acu-Link.com,2013-09-10 19:54:00,
2013-09-10 16:09:00,84.7,82.1,30.00,WSW,247,1.7,-999.0,92,-99.99,,,0.00,Acu-Link.com,2013-09-10 20:09:00,
2013-09-10 16:24:00,84.9,83.3,29.99,WNW,292,2.7,-999.0,95,-99.99,,,0.00,Acu-Link.com,2013-09-10 20:24:00,
2013-09-10 16:39:00,86.5,84.6,29.99,NE,45,1.7,-999.0,94,-99.99,,,0.00,Acu-Link.com,2013-09-10 20:39:00,
2013-09-10 16:55:00,84.0,82.1,29.99,NNW,337,4.2,-999.0,94,-99.99,,,0.00,Acu-Link.com,2013-09-10 20:55:00,
2013-09-10 17:10:00,84.4,82.5,29.99,NE,45,2.7,-999.0,94,-99.99,,,0.00,Acu-Link.com,2013-09-10 21:10:00,
2013-09-10 17:25:00,85.5,82.6,29.99,South,180,0.0,-999.0,91,-99.99,,,0.00,Acu-Link.com,2013-09-10 21:25:00,
2013-09-10 17:41:00,83.8,82.5,29.99,ESE,112,1.7,-999.0,96,-99.99,,,0.00,Acu-Link.com,2013-09-10 21:41:00,
2013-09-10 17:56:00,81.5,80.9,29.98,SSE,157,1.1,-999.0,98,-99.99,,,0.00,Acu-Link.com,2013-09-10 21:56:00,
2013-09-10 18:11:00,81.9,81.3,29.98,ESE,112,0.0,-999.0,98,-99.99,,,0.00,Acu-Link.com,2013-09-10 22:11:00,
2013-09-10 18:26:00,80.1,79.5,29.98,SE,135,1.1,-999.0,98,-99.99,,,0.00,Acu-Link.com,2013-09-10 22:26:00,
2013-09-10 18:42:00,79.2,78.6,29.98,SSE,157,0.0,-999.0,98,-99.99,,,0.00,Acu-Link.com,2013-09-10 22:42:00,
2013-09-10 18:57:00,77.2,76.6,29.99,ENE,67,0.0,-999.0,98,-99.99,,,0.00,Acu-Link.com,2013-09-10 22:57:00,
2013-09-10 19:23:00,77.0,76.4,29.99,WNW,292,0.0,-999.0,98,-99.99,,,0.00,Acu-Link.com,2013-09-10 23:23:00,
2013-09-10 19:38:00,74.1,73.5,30.00,SW,225,0.0,-999.0,98,-99.99,,,0.00,Acu-Link.com,2013-09-10 23:38:00,
2013-09-10 19:54:00,73.0,72.4,30.00,SW,225,0.0,-999.0,98,-99.99,,,0.00,Acu-Link.com,2013-09-10 23:54:00,
2013-09-10 20:09:00,72.3,71.7,30.01,WSW,247,0.0,-999.0,98,-99.99,,,0.00,Acu-Link.com,2013-09-11 00:09:00,
2013-09-10 20:54:00,71.6,71.0,30.03,West,270,0.0,-999.0,98,-99.99,,,0.00,Acu-Link.com,2013-09-11 00:54:00,
2013-09-10 21:15:00,69.1,68.5,30.04,West,270,0.0,-999.0,98,-99.99,,,0.00,Acu-Link.com,2013-09-11 01:15:00,
2013-09-10 21:31:00,68.4,67.8,30.05,NNW,337,0.0,-999.0,98,-99.99,,,0.00,Acu-Link.com,2013-09-11 01:31:00,
2013-09-10 21:53:00,67.8,67.2,30.06,WNW,292,0.0,-999.0,98,-99.99,,,0.00,Acu-Link.com,2013-09-11 01:53:00,
2013-09-10 22:08:00,67.3,66.7,30.06,ENE,67,0.0,-999.0,98,-99.99,,,0.00,Acu-Link.com,2013-09-11 02:08:00,
2013-09-10 22:24:00,67.1,66.5,30.06,WNW,292,0.0,-999.0,98,-99.99,,,0.00,Acu-Link.com,2013-09-11 02:24:00,
2013-09-10 22:39:00,66.4,65.8,30.07,NW,315,0.0,-999.0,98,-99.99,,,0.00,Acu-Link.com,2013-09-11 02:39:00,
2013-09-10 22:54:00,66.0,65.4,30.06,South,180,0.0,-999.0,98,-99.99,,,0.00,Acu-Link.com,2013-09-11 02:54:00,
2013-09-10 23:09:00,65.5,64.9,30.06,WNW,292,0.0,-999.0,98,-99.99,,,0.00,Acu-Link.com,2013-09-11 03:09:00,
2013-09-10 23:24:00,64.9,64.3,30.07,West,270,0.0,-999.0,98,-99.99,,,0.00,Acu-Link.com,2013-09-11 03:24:00,
2013-09-10 23:40:00,65.1,64.5,30.06,ENE,67,0.0,-999.0,98,-99.99,,,0.00,Acu-Link.com,2013-09-11 03:40:00,
2013-09-10 23:55:00,64.6,64.0,30.06,ESE,112,0.0,-999.0,98,-99.99,,,0.00,Acu-Link.com,2013-09-11 03:55:00,